createdAt,value
2023-01-07T00:00:22.767Z,6.88
2023-01-07T00:02:51.876Z,6.89
2023-01-07T00:05:19.829Z,6.97
2023-01-07T00:07:47.764Z,7.12
2023-01-07T00:10:15.691Z,6.90
2023-01-07T00:12:43.979Z,6.96
2023-01-07T00:15:12.095Z,7.09
2023-01-07T00:17:40.036Z,7.07
2023-01-07T00:20:08.175Z,7.16
2023-01-07T00:22:39.328Z,7.08
2023-01-07T00:25:09.124Z,6.93
2023-01-07T00:30:28.694Z,6.97
2023-01-07T00:33:06.308Z,6.99
2023-01-07T00:35:39.269Z,7.00
2023-01-07T00:38:11.373Z,7.07
2023-01-07T00:40:40.413Z,7.14
2023-01-07T00:43:08.287Z,7.09
2023-01-07T00:45:36.886Z,6.99
2023-01-07T00:48:05.335Z,6.99
2023-01-07T00:50:39.096Z,7.05
2023-01-07T00:53:08.294Z,6.98
2023-01-07T00:55:37.017Z,7.06
2023-01-07T00:58:06.040Z,7.17
2023-01-07T01:00:34.340Z,7.11
2023-01-07T01:03:02.371Z,7.11
2023-01-07T01:05:30.365Z,6.97
2023-01-07T01:07:59.305Z,6.90
2023-01-07T01:10:28.472Z,7.22
2023-01-07T01:12:56.333Z,7.23
2023-01-07T01:15:25.336Z,7.17
2023-01-07T01:17:54.061Z,7.04
2023-01-07T01:20:22.255Z,6.97
2023-01-07T01:22:50.287Z,6.93
2023-01-07T01:25:44.384Z,7.06
2023-01-07T01:28:38.322Z,7.21
2023-01-07T01:31:31.711Z,7.17
2023-01-07T01:34:00.134Z,7.15
2023-01-07T01:36:28.163Z,7.10
2023-01-07T01:39:22.377Z,7.15
2023-01-07T01:41:54.197Z,7.21
2023-01-07T01:44:44.346Z,7.26
2023-01-07T01:47:43.928Z,7.13
2023-01-07T01:50:36.340Z,7.02
2023-01-07T01:53:18.586Z,7.08
2023-01-07T01:56:17.971Z,7.21
2023-01-07T01:58:53.325Z,7.06
2023-01-07T02:01:26.750Z,6.96
2023-01-07T02:03:57.957Z,7.07
2023-01-07T02:06:31.298Z,7.16
2023-01-07T02:09:01.366Z,7.26
2023-01-07T02:11:42.340Z,7.16
2023-01-07T02:14:19.784Z,7.11
2023-01-07T02:16:53.580Z,7.19
2023-01-07T02:19:55.409Z,7.24
2023-01-07T02:23:02.374Z,7.07
2023-01-07T02:25:30.209Z,7.17
2023-01-07T02:28:18.393Z,7.20
2023-01-07T02:31:08.560Z,7.24
2023-01-07T02:34:00.370Z,7.02
2023-01-07T02:36:49.906Z,6.98
2023-01-07T02:39:54.575Z,7.14
2023-01-07T02:42:41.316Z,7.05
2023-01-07T02:45:20.356Z,7.05
2023-01-07T02:47:57.228Z,7.16
2023-01-07T02:50:27.288Z,7.09
2023-01-07T02:52:55.349Z,7.12
2023-01-07T02:55:40.352Z,7.19
2023-01-07T02:58:48.221Z,7.13
2023-01-07T03:01:28.617Z,7.22
2023-01-07T03:04:32.876Z,7.22
2023-01-07T03:07:19.078Z,7.16
2023-01-07T03:10:29.368Z,7.15
2023-01-07T03:13:21.415Z,7.16
2023-01-07T03:16:06.328Z,7.16
2023-01-07T03:18:41.372Z,7.20
2023-01-07T03:21:15.247Z,7.18
2023-01-07T03:23:53.317Z,7.16
2023-01-07T03:26:30.774Z,7.25
2023-01-07T03:29:03.350Z,7.17
2023-01-07T03:31:37.538Z,7.27
2023-01-07T03:34:12.329Z,7.25
2023-01-07T03:36:45.021Z,7.27
2023-01-07T03:39:16.378Z,7.15
2023-01-07T03:42:03.796Z,7.16
2023-01-07T03:44:33.366Z,7.21
2023-01-07T03:47:03.118Z,7.18
2023-01-07T03:49:32.726Z,7.22
2023-01-07T03:52:13.333Z,7.14
2023-01-07T03:54:43.012Z,7.13
2023-01-07T03:57:11.133Z,7.10
2023-01-07T03:59:39.227Z,7.11
2023-01-07T04:02:07.419Z,7.16
2023-01-07T04:04:36.553Z,7.17
2023-01-07T04:07:06.388Z,7.14
2023-01-07T04:09:34.397Z,7.00
2023-01-07T04:12:02.280Z,6.96
2023-01-07T04:14:33.337Z,7.10
2023-01-07T04:17:01.232Z,7.19
2023-01-07T04:19:29.133Z,7.11
2023-01-07T04:22:00.332Z,7.12
2023-01-07T04:24:32.601Z,7.33
2023-01-07T04:27:01.397Z,7.22
2023-01-07T04:29:30.702Z,7.08
2023-01-07T04:32:00.139Z,7.22
2023-01-07T04:34:29.319Z,7.12
2023-01-07T04:36:57.243Z,7.10
2023-01-07T04:39:26.468Z,7.09
2023-01-07T04:41:54.596Z,7.11
2023-01-07T04:44:24.474Z,7.12
2023-01-07T04:46:54.263Z,7.25
2023-01-07T04:49:22.152Z,7.22
2023-01-07T04:51:51.322Z,7.21
2023-01-07T04:54:20.142Z,7.19
2023-01-07T04:56:49.711Z,7.12
2023-01-07T04:59:19.289Z,7.27
2023-01-07T05:01:47.426Z,7.27
2023-01-07T05:04:15.539Z,7.16
2023-01-07T05:06:43.956Z,7.13
2023-01-07T05:09:16.304Z,7.15
2023-01-07T05:11:46.033Z,7.08
2023-01-07T05:14:18.301Z,7.17
2023-01-07T05:16:51.404Z,7.23
2023-01-07T05:19:19.903Z,7.26
2023-01-07T05:21:49.994Z,7.22
2023-01-07T05:24:21.388Z,7.12
2023-01-07T05:26:49.473Z,7.12
2023-01-07T05:29:19.330Z,7.17
2023-01-07T05:31:48.598Z,7.19
2023-01-07T05:34:17.028Z,7.23
2023-01-07T05:36:49.409Z,7.15
2023-01-07T05:39:17.340Z,7.16
2023-01-07T05:41:47.366Z,7.12
2023-01-07T05:44:15.359Z,7.17
2023-01-07T05:46:44.347Z,7.25
2023-01-07T05:49:12.239Z,7.30
2023-01-07T05:51:40.734Z,7.25
2023-01-07T05:54:08.881Z,7.20
2023-01-07T05:56:36.761Z,7.17
2023-01-07T05:59:05.450Z,7.18
2023-01-07T06:01:33.400Z,7.18
2023-01-07T06:04:01.340Z,7.06
2023-01-07T06:09:21.057Z,7.19
2023-01-07T06:11:48.923Z,7.20
2023-01-07T06:14:16.920Z,7.07
2023-01-07T06:19:41.317Z,7.19
2023-01-07T06:22:09.206Z,7.13
2023-01-07T06:24:37.310Z,7.17
2023-01-07T06:27:05.174Z,7.24
2023-01-07T06:29:34.540Z,7.26
2023-01-07T06:32:03.010Z,7.16
2023-01-07T06:35:21.320Z,7.18
2023-01-07T06:37:49.209Z,7.09
2023-01-07T06:40:18.459Z,7.19
2023-01-07T06:42:46.470Z,7.22
2023-01-07T06:45:14.488Z,7.21
2023-01-07T06:47:42.314Z,7.09
2023-01-07T06:50:12.062Z,7.02
2023-01-07T06:52:40.562Z,7.02
2023-01-07T06:55:08.881Z,7.10
2023-01-07T06:57:38.678Z,7.15
2023-01-07T07:00:07.153Z,7.11
2023-01-07T07:02:35.060Z,7.22
2023-01-07T07:05:03.138Z,7.05
2023-01-07T07:07:31.412Z,7.10
2023-01-07T07:09:59.309Z,7.06
2023-01-07T07:12:28.406Z,7.03
2023-01-07T07:14:56.277Z,7.10
2023-01-07T07:17:24.135Z,7.06
2023-01-07T07:19:52.317Z,7.10
2023-01-07T07:22:21.511Z,7.15
2023-01-07T07:24:51.401Z,7.10
2023-01-07T07:27:19.279Z,7.01
2023-01-07T07:29:47.281Z,6.97
2023-01-07T07:32:15.331Z,7.01
2023-01-07T07:34:43.398Z,6.99
2023-01-07T07:40:06.384Z,7.04
2023-01-07T07:43:11.628Z,6.94
2023-01-07T07:45:23.403Z,7.01
2023-01-07T07:47:51.337Z,6.94
2023-01-07T07:50:19.397Z,6.91
2023-01-07T07:52:48.357Z,6.97
2023-01-07T07:55:20.452Z,6.94
2023-01-07T07:57:55.365Z,6.93
2023-01-07T08:00:24.053Z,6.93
2023-01-07T08:02:52.015Z,6.91
2023-01-07T08:05:21.395Z,6.98
2023-01-07T08:07:49.267Z,7.03
2023-01-07T08:10:17.396Z,7.02
2023-01-07T08:12:47.456Z,6.97
2023-01-07T08:15:16.293Z,7.10
2023-01-07T08:17:44.404Z,7.05
2023-01-07T08:20:16.659Z,7.04
2023-01-07T08:22:46.698Z,7.12
2023-01-07T08:25:14.591Z,7.18
2023-01-07T08:39:56.670Z,7.27
2023-01-07T08:42:29.438Z,7.36
2023-01-07T08:44:57.444Z,7.40
2023-01-07T08:47:27.931Z,7.43
2023-01-07T08:49:55.792Z,7.50
2023-01-07T08:52:25.434Z,7.47
2023-01-07T08:54:53.245Z,7.55
2023-01-07T08:57:22.057Z,7.55
2023-01-07T08:59:50.191Z,7.57
2023-01-07T09:02:19.713Z,7.62
2023-01-07T09:04:47.666Z,7.64
2023-01-07T09:07:19.388Z,7.66
2023-01-07T09:10:12.901Z,7.75
2023-01-07T09:15:34.454Z,7.86
2023-01-07T09:18:03.715Z,7.86
2023-01-07T09:20:31.608Z,8.02
2023-01-07T09:23:00.352Z,8.29
2023-01-07T09:25:28.245Z,8.26
2023-01-07T09:27:56.092Z,8.40
2023-01-07T09:30:24.051Z,8.27
2023-01-07T09:32:51.897Z,8.27
2023-01-07T09:35:22.436Z,8.30
2023-01-07T09:37:50.270Z,8.58
2023-01-07T09:40:32.671Z,8.64
2023-01-07T09:43:23.112Z,8.59
2023-01-07T09:45:54.204Z,8.50
2023-01-07T09:48:25.244Z,8.47
2023-01-07T09:50:55.782Z,8.63
2023-01-07T09:53:28.111Z,8.68
2023-01-07T09:56:10.504Z,8.56
2023-01-07T09:58:42.499Z,8.57
2023-01-07T10:01:38.524Z,8.81
2023-01-07T10:04:25.165Z,8.86
2023-01-07T10:07:22.385Z,9.11
2023-01-07T10:10:03.042Z,8.97
2023-01-07T10:12:41.724Z,8.84
2023-01-07T10:15:24.482Z,9.17
2023-01-07T10:18:18.380Z,9.00
2023-01-07T10:21:13.985Z,9.00
2023-01-07T10:24:21.740Z,9.14
2023-01-07T10:26:55.316Z,9.35
2023-01-07T10:29:54.493Z,9.22
2023-01-07T10:32:23.465Z,9.20
2023-01-07T10:34:59.405Z,9.20
2023-01-07T10:37:28.445Z,9.19
2023-01-07T10:40:42.085Z,9.18
2023-01-07T10:45:02.309Z,9.29
2023-01-07T10:48:51.095Z,9.35
2023-01-07T10:51:50.624Z,9.42
2023-01-07T10:54:27.530Z,9.64
2023-01-07T10:57:15.398Z,9.42
2023-01-07T10:59:49.549Z,9.56
2023-01-07T11:02:21.598Z,9.55
2023-01-07T11:04:49.702Z,9.78
2023-01-07T11:07:36.430Z,9.76
2023-01-07T11:10:06.545Z,9.78
2023-01-07T11:12:43.033Z,9.90
2023-01-07T11:18:30.577Z,10.09
2023-01-07T11:21:00.681Z,10.14
2023-01-07T11:23:32.557Z,10.11
2023-01-07T11:26:14.078Z,10.20
2023-01-07T11:28:57.777Z,10.31
2023-01-07T11:31:51.983Z,10.43
2023-01-07T11:34:25.617Z,10.37
2023-01-07T11:37:43.937Z,10.46
2023-01-07T11:40:16.592Z,10.60
2023-01-07T11:42:48.053Z,10.48
2023-01-07T11:45:22.903Z,10.53
2023-01-07T11:48:05.994Z,10.57
2023-01-07T11:50:53.066Z,10.58
2023-01-07T11:53:59.801Z,10.56
2023-01-07T11:56:30.336Z,10.69
2023-01-07T11:59:14.292Z,10.77
2023-01-07T12:01:51.218Z,10.80
2023-01-07T12:04:31.116Z,10.70
2023-01-07T12:07:05.216Z,10.86
2023-01-07T12:09:35.090Z,10.98
2023-01-07T12:12:34.483Z,11.06
2023-01-07T12:15:05.582Z,10.82
2023-01-07T12:17:35.567Z,10.60
2023-01-07T12:20:33.042Z,11.06
2023-01-07T12:23:19.534Z,11.05
2023-01-07T12:25:59.458Z,10.99
2023-01-07T12:32:23.531Z,10.94
2023-01-07T12:35:28.016Z,10.98
2023-01-07T12:38:25.562Z,10.93
2023-01-07T12:41:05.604Z,10.94
2023-01-07T12:43:37.569Z,11.07
2023-01-07T12:46:14.004Z,10.99
2023-01-07T12:49:05.165Z,10.93
2023-01-07T12:52:10.881Z,11.13
2023-01-07T12:54:41.460Z,11.05
2023-01-07T12:57:21.528Z,11.25
2023-01-07T13:00:09.562Z,11.15
2023-01-07T13:02:56.367Z,10.91
2023-01-07T13:05:49.527Z,10.94
2023-01-07T13:08:48.263Z,11.12
2023-01-07T13:11:49.211Z,10.87
2023-01-07T13:14:23.342Z,11.04
2023-01-07T13:16:52.761Z,10.88
2023-01-07T13:19:20.788Z,10.82
2023-01-07T13:21:50.447Z,10.96
2023-01-07T13:24:55.428Z,10.85
2023-01-07T13:27:52.297Z,10.87
2023-01-07T13:30:54.440Z,10.89
2023-01-07T13:33:31.705Z,10.94
2023-01-07T13:36:52.528Z,10.91
2023-01-07T13:39:40.423Z,10.75
2023-01-07T13:42:24.657Z,10.91
2023-01-07T13:45:09.892Z,10.65
2023-01-07T13:47:44.570Z,10.59
2023-01-07T13:50:35.983Z,10.52
2023-01-07T13:53:27.711Z,10.64
2023-01-07T13:56:18.416Z,10.53
2023-01-07T13:58:49.524Z,10.47
2023-01-07T14:01:18.323Z,10.36
2023-01-07T14:03:51.674Z,10.34
2023-01-07T14:06:30.692Z,10.13
2023-01-07T14:09:15.506Z,10.31
2023-01-07T14:12:19.875Z,10.24
2023-01-07T14:15:34.676Z,10.14
2023-01-07T14:18:26.963Z,10.03
2023-01-07T14:21:09.985Z,10.05
2023-01-07T14:24:02.293Z,10.04
2023-01-07T14:26:36.552Z,9.99
2023-01-07T14:29:25.347Z,9.99
2023-01-07T14:32:26.364Z,9.97
2023-01-07T14:35:20.878Z,9.87
2023-01-07T14:37:50.613Z,9.83
2023-01-07T14:41:58.418Z,10.01
2023-01-07T14:45:06.150Z,10.01
2023-01-07T14:48:26.703Z,10.01
2023-01-07T14:52:04.498Z,10.14
2023-01-07T14:55:28.123Z,9.91
2023-01-07T14:58:55.685Z,10.03
2023-01-07T15:02:04.188Z,9.91
2023-01-07T15:05:27.552Z,9.75
2023-01-07T15:08:24.990Z,9.73
2023-01-07T15:11:15.691Z,9.59
2023-01-07T15:14:15.248Z,9.51
2023-01-07T15:16:51.760Z,9.50
2023-01-07T15:19:21.786Z,9.35
2023-01-07T15:22:11.547Z,9.63
2023-01-07T15:25:11.797Z,9.30
2023-01-07T15:28:04.046Z,9.24
2023-01-07T15:30:50.226Z,9.25
2023-01-07T15:34:06.274Z,9.13
2023-01-07T15:36:41.738Z,9.07
2023-01-07T15:39:23.685Z,9.02
2023-01-07T15:41:54.340Z,8.96
2023-01-07T15:44:29.018Z,8.96
2023-01-07T15:54:42.559Z,8.73
2023-01-07T15:57:15.779Z,8.70
2023-01-07T15:59:52.575Z,8.63
2023-01-07T16:02:27.649Z,8.57
2023-01-07T16:04:59.142Z,8.58
2023-01-07T16:08:00.034Z,8.59
2023-01-07T16:10:32.477Z,8.64
2023-01-07T16:13:05.252Z,8.71
2023-01-07T16:18:34.152Z,8.51
2023-01-07T16:21:14.684Z,8.52
2023-01-07T16:23:47.571Z,8.45
2023-01-07T16:26:22.986Z,8.44
2023-01-07T16:28:58.740Z,8.45
2023-01-07T16:31:30.618Z,8.42
2023-01-07T16:34:00.130Z,8.41
2023-01-07T16:36:45.587Z,8.35
2023-01-07T16:39:24.600Z,8.33
2023-01-07T16:42:14.586Z,8.30
2023-01-07T16:44:44.369Z,8.33
2023-01-07T16:47:27.171Z,8.33
2023-01-07T16:49:57.644Z,8.36
2023-01-07T16:52:32.997Z,8.40
2023-01-07T16:55:42.829Z,8.46
2023-01-07T17:04:30.573Z,8.26
2023-01-07T17:07:01.494Z,8.15
2023-01-07T17:09:34.509Z,8.24
2023-01-07T17:12:03.834Z,8.33
2023-01-07T17:14:35.608Z,8.34
2023-01-07T17:17:08.974Z,8.16
2023-01-07T17:19:44.583Z,8.12
2023-01-07T17:22:33.020Z,8.04
2023-01-07T17:25:10.640Z,8.02
2023-01-07T17:27:49.891Z,8.03
2023-01-07T17:30:43.876Z,7.94
2023-01-07T17:33:19.744Z,7.94
2023-01-07T17:38:40.064Z,7.99
2023-01-07T17:41:32.331Z,7.98
2023-01-07T17:44:01.194Z,7.90
2023-01-07T17:46:31.911Z,7.84
2023-01-07T17:49:01.767Z,7.72
2023-01-07T17:51:37.716Z,7.72
2023-01-07T17:54:08.771Z,7.65
2023-01-07T17:56:36.598Z,7.80
2023-01-07T17:59:04.742Z,7.71
2023-01-07T18:01:32.904Z,7.52
2023-01-07T18:04:00.847Z,7.55
2023-01-07T18:06:31.652Z,7.63
2023-01-07T18:09:24.908Z,7.61
2023-01-07T18:12:15.570Z,7.50
2023-01-07T18:14:43.393Z,7.51
2023-01-07T18:17:11.439Z,7.63
2023-01-07T18:19:40.382Z,7.57
2023-01-07T18:22:10.289Z,7.54
2023-01-07T18:24:38.238Z,7.50
2023-01-07T18:27:06.140Z,7.38
2023-01-07T18:29:34.012Z,7.45
2023-01-07T18:37:54.606Z,7.14
2023-01-07T18:40:23.311Z,7.18
2023-01-07T18:45:48.199Z,7.24
2023-01-07T18:48:19.486Z,7.04
2023-01-07T18:50:50.186Z,7.13
2023-01-07T18:53:19.047Z,6.94
2023-01-07T18:55:57.885Z,6.97
2023-01-07T18:58:28.404Z,6.98
2023-01-07T19:01:03.752Z,6.90
2023-01-07T19:03:36.617Z,6.90
2023-01-07T19:06:09.770Z,6.90
2023-01-07T19:08:38.816Z,6.79
2023-01-07T19:14:06.887Z,6.62
2023-01-07T19:16:34.858Z,6.51
2023-01-07T19:19:03.168Z,6.45
2023-01-07T19:21:31.034Z,6.36
2023-01-07T19:24:01.598Z,6.43
2023-01-07T19:26:31.511Z,6.36
2023-01-07T19:29:00.736Z,6.21
2023-01-07T19:31:30.424Z,6.32
2023-01-07T19:33:58.431Z,6.21
2023-01-07T19:36:26.274Z,6.21
2023-01-07T19:38:54.149Z,6.31
2023-01-07T19:41:24.773Z,6.10
2023-01-07T19:43:57.988Z,6.23
2023-01-07T19:46:27.271Z,6.00
2023-01-07T19:48:55.190Z,5.97
2023-01-07T19:51:23.092Z,5.95
2023-01-07T19:53:51.585Z,5.85
2023-01-07T19:56:45.221Z,5.95
2023-01-07T19:59:38.621Z,5.85
2023-01-07T20:02:32.701Z,5.67
2023-01-07T20:05:01.345Z,5.60
2023-01-07T20:07:34.002Z,5.57
2023-01-07T20:10:03.663Z,5.38
2023-01-07T20:12:34.229Z,5.61
2023-01-07T20:17:54.389Z,5.29
2023-01-07T20:20:24.024Z,5.29
2023-01-07T20:22:53.329Z,5.26
2023-01-07T20:25:22.492Z,5.39
2023-01-07T20:27:51.390Z,4.95
2023-01-07T20:30:19.268Z,4.98
2023-01-07T20:32:47.231Z,5.01
2023-01-07T20:35:15.201Z,5.17
2023-01-07T20:37:43.333Z,5.18
2023-01-07T20:40:11.680Z,5.25
2023-01-07T20:42:39.558Z,5.19
2023-01-07T20:45:08.292Z,5.26
2023-01-07T20:47:36.286Z,5.17
2023-01-07T20:50:04.664Z,5.24
2023-01-07T20:52:32.930Z,5.27
2023-01-07T20:55:00.780Z,5.24
2023-01-07T20:57:28.732Z,5.14
2023-01-07T20:59:56.576Z,5.18
2023-01-07T21:02:24.742Z,5.08
2023-01-07T21:04:52.881Z,4.96
2023-01-07T21:07:20.752Z,4.96
2023-01-07T21:09:48.654Z,5.03
2023-01-07T21:12:16.614Z,4.83
2023-01-07T21:14:44.712Z,4.88
2023-01-07T21:17:13.497Z,4.85
2023-01-07T21:19:41.880Z,4.79
2023-01-07T21:22:10.669Z,4.80
2023-01-07T21:24:38.538Z,4.68
2023-01-07T21:27:06.459Z,4.78
2023-01-07T21:29:34.294Z,4.79
2023-01-07T21:32:04.226Z,4.86
2023-01-07T21:34:32.201Z,4.81
2023-01-07T21:37:00.104Z,4.74
2023-01-07T21:39:27.948Z,4.57
2023-01-07T21:41:55.797Z,4.60
2023-01-07T21:44:23.763Z,4.73
2023-01-07T21:46:51.729Z,4.58
2023-01-07T21:49:19.716Z,4.50
2023-01-07T21:51:53.080Z,4.67
2023-01-07T21:54:20.996Z,4.71
2023-01-07T21:56:49.067Z,4.82
2023-01-07T21:59:16.973Z,4.67
2023-01-07T22:01:44.950Z,4.80
2023-01-07T22:04:13.008Z,4.73
2023-01-07T22:06:41.996Z,4.66
2023-01-07T22:09:14.047Z,4.75
2023-01-07T22:11:42.481Z,4.71
2023-01-07T22:14:17.260Z,4.70
2023-01-07T22:16:47.443Z,4.58
2023-01-07T22:19:16.781Z,4.57
2023-01-07T22:21:44.915Z,4.38
2023-01-07T22:24:14.328Z,4.23
2023-01-07T22:26:42.966Z,4.13
2023-01-07T22:29:10.959Z,4.14
2023-01-07T22:31:38.943Z,4.01
2023-01-07T22:34:08.351Z,4.02
2023-01-07T22:36:45.225Z,3.97
2023-01-07T22:39:22.469Z,3.95
2023-01-07T22:41:56.319Z,4.11
2023-01-07T22:44:30.129Z,4.01
2023-01-07T22:46:58.147Z,3.83
2023-01-07T22:49:29.268Z,3.81
2023-01-07T22:51:57.689Z,3.80
2023-01-07T22:54:26.664Z,3.79
2023-01-07T22:56:54.853Z,3.90
2023-01-07T22:59:22.773Z,3.68
2023-01-07T23:01:50.624Z,3.62
2023-01-07T23:04:18.614Z,3.64
2023-01-07T23:06:46.586Z,3.64
2023-01-07T23:09:14.516Z,3.57
2023-01-07T23:11:48.396Z,3.53
2023-01-07T23:14:21.954Z,3.70
2023-01-07T23:16:50.771Z,3.24
2023-01-07T23:19:19.891Z,3.38
2023-01-07T23:21:51.350Z,3.44
2023-01-07T23:24:20.321Z,3.37
2023-01-07T23:26:50.601Z,3.48
2023-01-07T23:29:19.382Z,3.47
2023-01-07T23:31:47.416Z,3.19
2023-01-07T23:34:16.042Z,3.22
2023-01-07T23:36:44.209Z,3.09
2023-01-07T23:39:12.984Z,3.06
2023-01-07T23:41:40.985Z,3.11
2023-01-07T23:44:08.865Z,3.20
2023-01-07T23:46:36.978Z,3.26
2023-01-07T23:49:04.917Z,3.25
2023-01-07T23:51:32.788Z,3.18
2023-01-07T23:54:00.664Z,3.11
2023-01-07T23:56:28.578Z,3.15
2023-01-07T23:58:56.937Z,3.12
